createdAt,value
2023-02-09T00:00:13.202Z,71.05
2023-02-09T00:03:02.088Z,70.92
2023-02-09T00:05:31.263Z,71.09
2023-02-09T00:08:00.149Z,71.34
2023-02-09T00:10:30.588Z,71.45
2023-02-09T00:13:16.656Z,71.46
2023-02-09T00:15:50.712Z,71.39
2023-02-09T00:18:19.939Z,71.11
2023-02-09T00:20:57.819Z,71.20
2023-02-09T00:23:28.562Z,71.26
2023-02-09T00:26:01.377Z,71.15
2023-02-09T00:28:30.914Z,71.42
2023-02-09T00:31:00.253Z,71.25
2023-02-09T00:33:29.141Z,71.70
2023-02-09T00:35:58.230Z,71.77
2023-02-09T00:38:27.056Z,72.11
2023-02-09T00:40:56.129Z,72.16
2023-02-09T00:43:26.326Z,72.37
2023-02-09T00:45:55.535Z,71.94
2023-02-09T00:48:24.812Z,72.05
2023-02-09T00:50:55.129Z,71.95
2023-02-09T00:53:24.547Z,71.79
2023-02-09T00:55:53.977Z,71.90
2023-02-09T00:58:22.761Z,71.41
2023-02-09T01:00:53.819Z,71.17
2023-02-09T01:03:22.752Z,71.05
2023-02-09T01:05:51.880Z,70.53
2023-02-09T01:08:20.781Z,70.69
2023-02-09T01:10:49.872Z,70.67
2023-02-09T01:13:19.247Z,70.42
2023-02-09T01:15:48.385Z,71.21
2023-02-09T01:18:18.679Z,71.16
2023-02-09T01:20:47.855Z,71.09
2023-02-09T01:23:17.365Z,71.38
2023-02-09T01:25:47.139Z,71.31
2023-02-09T01:28:15.940Z,71.27
2023-02-09T01:30:45.465Z,71.48
2023-02-09T01:33:17.234Z,71.41
2023-02-09T01:35:46.373Z,71.52
2023-02-09T01:38:15.467Z,71.35
2023-02-09T01:40:49.276Z,70.99
2023-02-09T01:43:18.470Z,70.85
2023-02-09T01:45:50.181Z,70.94
2023-02-09T01:48:24.465Z,71.15
2023-02-09T01:51:00.288Z,70.60
2023-02-09T01:53:29.750Z,70.74
2023-02-09T01:56:05.735Z,70.40
2023-02-09T01:58:35.885Z,70.70
2023-02-09T02:01:06.551Z,71.06
2023-02-09T02:03:36.895Z,71.33
2023-02-09T02:06:12.014Z,71.67
2023-02-09T02:08:48.096Z,71.73
2023-02-09T02:11:18.811Z,71.60
2023-02-09T02:13:47.688Z,71.41
2023-02-09T02:16:45.020Z,71.06
2023-02-09T02:20:15.462Z,70.93
2023-02-09T02:23:06.508Z,70.92
2023-02-09T02:26:21.963Z,71.26
2023-02-09T02:29:23.419Z,71.72
2023-02-09T02:32:34.026Z,71.47
2023-02-09T02:35:15.979Z,71.46
2023-02-09T02:37:59.195Z,71.78
2023-02-09T02:40:46.247Z,71.76
2023-02-09T02:43:34.763Z,71.84
2023-02-09T02:46:11.144Z,71.86
2023-02-09T02:48:48.254Z,72.38
2023-02-09T02:51:29.427Z,72.42
2023-02-09T02:54:03.206Z,72.37
2023-02-09T02:56:38.396Z,72.62
2023-02-09T02:59:12.502Z,72.49
2023-02-09T03:01:47.010Z,72.53
2023-02-09T03:04:18.601Z,72.74
2023-02-09T03:06:47.657Z,72.41
2023-02-09T03:09:19.485Z,72.68
2023-02-09T03:11:56.200Z,73.14
2023-02-09T03:14:44.339Z,73.14
2023-02-09T03:17:35.835Z,73.57
2023-02-09T03:20:17.816Z,73.44
2023-02-09T03:22:58.114Z,73.58
2023-02-09T03:25:33.148Z,73.24
2023-02-09T03:28:08.468Z,73.16
2023-02-09T03:30:42.564Z,73.47
2023-02-09T03:33:21.787Z,73.20
2023-02-09T03:35:56.004Z,73.22
2023-02-09T03:38:25.704Z,72.78
2023-02-09T03:40:55.170Z,72.91
2023-02-09T03:43:45.337Z,73.32
2023-02-09T03:46:14.382Z,73.46
2023-02-09T03:48:43.469Z,73.27
2023-02-09T03:51:13.668Z,72.82
2023-02-09T03:53:42.761Z,72.52
2023-02-09T03:56:11.583Z,72.55
2023-02-09T03:58:40.677Z,72.77
2023-02-09T04:01:12.079Z,73.00
2023-02-09T04:03:41.483Z,72.67
2023-02-09T04:06:11.100Z,72.31
2023-02-09T04:08:43.183Z,72.48
2023-02-09T04:11:12.128Z,71.99
2023-02-09T04:13:41.107Z,71.97
2023-02-09T04:16:10.214Z,72.21
2023-02-09T04:18:39.318Z,72.03
2023-02-09T04:21:08.125Z,72.50
2023-02-09T04:23:37.248Z,72.50
2023-02-09T04:26:07.931Z,72.86
2023-02-09T04:28:37.178Z,72.54
2023-02-09T04:31:06.341Z,72.74
2023-02-09T04:33:35.582Z,72.67
2023-02-09T04:36:05.804Z,72.77
2023-02-09T04:38:35.379Z,72.56
2023-02-09T04:41:07.163Z,73.02
2023-02-09T04:43:36.593Z,73.05
2023-02-09T04:46:05.870Z,73.19
2023-02-09T04:48:34.978Z,73.31
2023-02-09T04:51:03.800Z,72.54
2023-02-09T04:53:33.005Z,72.01
2023-02-09T04:56:01.924Z,71.84
2023-02-09T04:58:49.839Z,72.02
2023-02-09T05:01:22.993Z,72.24
2023-02-09T05:03:52.358Z,72.81
2023-02-09T05:06:21.780Z,72.57
2023-02-09T05:08:50.965Z,72.13
2023-02-09T05:11:19.751Z,72.80
2023-02-09T05:13:50.247Z,72.60
2023-02-09T05:16:19.180Z,72.08
2023-02-09T05:18:50.415Z,72.41
2023-02-09T05:21:19.344Z,72.12
2023-02-09T05:23:48.452Z,72.45
2023-02-09T05:26:17.153Z,72.67
2023-02-09T05:28:46.218Z,72.31
2023-02-09T05:31:16.664Z,72.42
2023-02-09T05:33:46.097Z,72.42
2023-02-09T05:36:14.948Z,71.75
2023-02-09T05:38:44.005Z,72.04
2023-02-09T05:41:36.273Z,71.52
2023-02-09T05:44:05.848Z,71.53
2023-02-09T05:46:36.079Z,71.42
2023-02-09T05:49:05.197Z,71.09
2023-02-09T05:51:33.971Z,71.98
2023-02-09T05:54:03.065Z,71.33
2023-02-09T05:56:32.000Z,71.58
2023-02-09T05:59:02.947Z,70.92
2023-02-09T06:01:33.419Z,70.73
2023-02-09T06:04:03.856Z,70.80
2023-02-09T06:06:32.761Z,70.81
2023-02-09T06:09:01.831Z,71.27
2023-02-09T06:11:30.756Z,70.96
2023-02-09T06:14:00.054Z,71.22
2023-02-09T06:16:29.144Z,71.54
2023-02-09T06:18:58.247Z,71.06
2023-02-09T06:21:28.658Z,70.68
2023-02-09T06:23:57.747Z,70.57
2023-02-09T06:26:26.509Z,70.67
2023-02-09T06:28:55.571Z,71.12
2023-02-09T06:31:24.999Z,70.99
2023-02-09T06:33:54.161Z,71.28
2023-02-09T06:36:23.303Z,71.99
2023-02-09T06:38:53.876Z,71.91
2023-02-09T06:41:22.739Z,71.87
2023-02-09T06:43:51.778Z,71.75
2023-02-09T06:46:20.704Z,72.35
2023-02-09T06:48:49.981Z,72.57
2023-02-09T06:51:19.146Z,72.21
2023-02-09T06:53:48.344Z,72.06
2023-02-09T06:56:19.241Z,71.79
2023-02-09T06:58:48.510Z,72.13
2023-02-09T07:01:17.775Z,72.18
2023-02-09T07:03:47.020Z,72.65
2023-02-09T07:06:18.213Z,72.84
2023-02-09T07:08:47.691Z,72.59
2023-02-09T07:11:19.941Z,72.54
2023-02-09T07:13:49.531Z,72.36
2023-02-09T07:16:18.462Z,71.94
2023-02-09T07:18:47.589Z,72.30
2023-02-09T07:21:20.032Z,71.80
2023-02-09T07:23:50.894Z,71.71
2023-02-09T07:26:21.088Z,71.66
2023-02-09T07:28:50.294Z,71.18
2023-02-09T07:31:19.624Z,70.75
2023-02-09T07:33:48.824Z,70.29
2023-02-09T07:36:19.317Z,70.10
2023-02-09T07:38:48.632Z,69.79
2023-02-09T07:41:25.195Z,69.32
2023-02-09T07:43:54.631Z,69.70
2023-02-09T07:46:25.531Z,69.11
2023-02-09T07:48:54.811Z,68.49
2023-02-09T07:51:25.527Z,68.17
2023-02-09T07:53:56.142Z,68.83
2023-02-09T07:56:28.118Z,68.31
2023-02-09T07:58:58.105Z,67.34
2023-02-09T08:01:27.288Z,67.89
2023-02-09T08:03:56.459Z,67.61
2023-02-09T08:06:42.060Z,66.59
2023-02-09T08:09:14.916Z,66.47
2023-02-09T08:11:54.399Z,66.09
2023-02-09T08:14:29.488Z,65.86
2023-02-09T08:17:18.284Z,65.45
2023-02-09T08:19:54.343Z,65.42
2023-02-09T08:22:26.137Z,63.68
2023-02-09T08:24:55.717Z,62.42
2023-02-09T08:27:26.137Z,61.81
2023-02-09T08:29:55.617Z,61.96
2023-02-09T08:32:24.583Z,62.05
2023-02-09T08:34:53.733Z,62.64
2023-02-09T08:37:22.521Z,62.03
2023-02-09T08:39:51.652Z,62.89
2023-02-09T08:42:20.570Z,62.28
2023-02-09T08:44:51.190Z,62.94
2023-02-09T08:47:20.073Z,62.86
2023-02-09T08:49:50.806Z,63.17
2023-02-09T08:52:19.985Z,62.27
2023-02-09T08:54:49.092Z,62.33
2023-02-09T08:57:18.095Z,62.01
2023-02-09T08:59:47.390Z,61.79
2023-02-09T09:02:17.572Z,61.30
2023-02-09T09:04:47.034Z,60.91
2023-02-09T09:07:16.140Z,60.76
2023-02-09T09:09:45.229Z,61.11
2023-02-09T09:12:14.047Z,60.74
2023-02-09T09:14:44.526Z,58.14
2023-02-09T09:17:13.282Z,55.54
2023-02-09T09:19:43.796Z,52.18
2023-02-09T09:22:12.651Z,49.78
2023-02-09T09:24:41.791Z,46.58
2023-02-09T09:27:12.887Z,46.65
2023-02-09T09:29:42.072Z,47.71
2023-02-09T09:32:14.785Z,48.22
2023-02-09T09:34:45.398Z,47.37
2023-02-09T09:37:14.281Z,46.32
2023-02-09T09:39:43.643Z,45.18
2023-02-09T09:42:25.891Z,46.14
2023-02-09T09:44:56.053Z,45.81
2023-02-09T09:47:37.667Z,45.73
2023-02-09T09:50:18.247Z,46.11
2023-02-09T09:52:51.416Z,46.77
2023-02-09T09:55:25.717Z,46.73
2023-02-09T09:57:57.540Z,46.77
2023-02-09T10:00:34.762Z,46.45
2023-02-09T10:03:04.842Z,46.75
2023-02-09T10:05:41.142Z,45.59
2023-02-09T10:08:21.622Z,45.60
2023-02-09T10:10:58.935Z,44.89
2023-02-09T10:13:34.785Z,45.05
2023-02-09T10:16:05.460Z,45.30
2023-02-09T10:18:38.258Z,44.54
2023-02-09T10:21:13.134Z,44.46
2023-02-09T10:23:45.928Z,43.88
2023-02-09T10:26:23.652Z,43.27
2023-02-09T10:28:55.920Z,42.67
2023-02-09T10:31:32.599Z,43.10
2023-02-09T10:34:11.071Z,43.38
2023-02-09T10:36:52.483Z,44.31
2023-02-09T10:39:29.389Z,43.98
2023-02-09T10:42:18.875Z,43.30
2023-02-09T10:44:52.369Z,44.38
2023-02-09T10:47:30.930Z,46.10
2023-02-09T10:50:14.121Z,46.40
2023-02-09T10:52:56.870Z,47.66
2023-02-09T10:55:35.467Z,48.26
2023-02-09T10:58:25.562Z,49.02
2023-02-09T11:01:07.646Z,49.06
2023-02-09T11:03:38.801Z,49.54
2023-02-09T11:06:17.348Z,49.76
2023-02-09T11:08:56.583Z,50.26
2023-02-09T11:11:32.916Z,49.64
2023-02-09T11:14:03.428Z,50.12
2023-02-09T11:16:57.110Z,49.18
2023-02-09T11:20:20.951Z,47.97
2023-02-09T11:23:18.455Z,47.02
2023-02-09T11:25:59.851Z,45.55
2023-02-09T11:28:46.374Z,44.91
2023-02-09T11:31:53.031Z,41.69
2023-02-09T11:34:57.762Z,38.92
2023-02-09T11:37:37.365Z,38.15
2023-02-09T11:40:24.027Z,36.29
2023-02-09T11:43:07.542Z,36.02
2023-02-09T11:45:44.272Z,34.15
2023-02-09T11:48:21.684Z,33.37
2023-02-09T11:51:03.046Z,32.46
2023-02-09T11:53:43.709Z,33.26
2023-02-09T11:56:15.847Z,31.47
2023-02-09T11:58:54.936Z,30.46
2023-02-09T12:01:44.451Z,28.47
2023-02-09T12:04:22.488Z,28.16
2023-02-09T12:06:57.142Z,26.86
2023-02-09T12:09:46.675Z,26.74
2023-02-09T12:12:26.890Z,26.81
2023-02-09T12:15:08.915Z,26.08
2023-02-09T12:17:48.098Z,25.37
2023-02-09T12:20:32.742Z,25.35
2023-02-09T12:23:08.005Z,27.77
2023-02-09T12:25:54.704Z,30.44
2023-02-09T12:28:46.203Z,32.83
2023-02-09T12:31:24.765Z,32.54
2023-02-09T12:34:24.165Z,34.83
2023-02-09T12:37:28.311Z,36.66
2023-02-09T12:40:22.658Z,39.03
2023-02-09T12:43:27.227Z,39.39
2023-02-09T12:46:26.847Z,41.49
2023-02-09T12:49:20.786Z,41.20
2023-02-09T12:52:17.525Z,40.93
2023-02-09T12:54:52.050Z,40.79
2023-02-09T12:57:50.950Z,41.12
2023-02-09T13:00:56.330Z,41.37
2023-02-09T13:03:28.350Z,43.76
2023-02-09T13:06:02.717Z,42.54
2023-02-09T13:08:53.152Z,42.47
2023-02-09T13:11:32.244Z,42.29
2023-02-09T13:14:07.690Z,42.26
2023-02-09T13:17:38.919Z,42.08
2023-02-09T13:20:56.955Z,42.14
2023-02-09T13:23:35.105Z,42.59
2023-02-09T13:26:19.943Z,41.78
2023-02-09T13:28:49.338Z,42.31
2023-02-09T13:31:36.158Z,41.95
2023-02-09T13:34:24.992Z,41.77
2023-02-09T13:37:21.513Z,42.88
2023-02-09T13:40:00.928Z,43.29
2023-02-09T13:42:36.148Z,43.37
2023-02-09T13:45:19.712Z,43.67
2023-02-09T13:47:49.261Z,43.68
2023-02-09T13:50:21.382Z,44.61
2023-02-09T13:52:52.462Z,44.20
2023-02-09T13:55:24.666Z,43.57
2023-02-09T13:58:00.389Z,44.52
2023-02-09T14:00:39.283Z,44.70
2023-02-09T14:03:16.518Z,45.20
2023-02-09T14:05:51.317Z,44.95
2023-02-09T14:08:23.203Z,44.84
2023-02-09T14:10:58.660Z,44.88
2023-02-09T14:13:34.824Z,45.02
2023-02-09T14:16:07.428Z,45.76
2023-02-09T14:18:53.055Z,45.39
2023-02-09T14:21:32.450Z,45.38
2023-02-09T14:24:41.423Z,45.07
2023-02-09T14:27:23.982Z,45.06
2023-02-09T14:29:53.395Z,45.57
2023-02-09T14:32:36.543Z,45.30
2023-02-09T14:35:21.058Z,45.25
2023-02-09T14:37:53.047Z,46.28
2023-02-09T14:40:32.087Z,45.88
2023-02-09T14:43:04.608Z,47.01
2023-02-09T14:45:40.486Z,47.01
2023-02-09T14:48:21.870Z,46.87
2023-02-09T14:50:54.305Z,46.46
2023-02-09T14:53:28.179Z,46.34
2023-02-09T14:55:59.331Z,47.04
2023-02-09T14:58:30.869Z,46.73
2023-02-09T15:01:03.406Z,47.24
2023-02-09T15:03:32.546Z,47.38
2023-02-09T15:06:04.708Z,48.12
2023-02-09T15:08:39.186Z,48.15
2023-02-09T15:11:33.869Z,48.44
2023-02-09T15:14:06.421Z,48.72
2023-02-09T15:16:35.306Z,49.10
2023-02-09T15:19:05.450Z,49.38
2023-02-09T15:21:34.268Z,49.02
2023-02-09T15:24:03.460Z,49.44
2023-02-09T15:26:37.529Z,49.00
2023-02-09T15:29:13.788Z,48.97
2023-02-09T15:31:43.126Z,49.08
2023-02-09T15:34:14.612Z,49.44
2023-02-09T15:36:43.752Z,49.58
2023-02-09T15:39:22.129Z,49.06
2023-02-09T15:42:09.813Z,49.84
2023-02-09T15:44:56.242Z,50.06
2023-02-09T15:47:42.480Z,49.77
2023-02-09T15:50:11.689Z,50.09
2023-02-09T15:52:40.754Z,50.17
2023-02-09T15:55:19.880Z,49.80
2023-02-09T15:57:53.838Z,49.99
2023-02-09T16:00:25.876Z,50.30
2023-02-09T16:02:57.263Z,50.19
2023-02-09T16:05:30.283Z,50.18
2023-02-09T16:08:00.997Z,50.30
2023-02-09T16:10:31.304Z,50.23
2023-02-09T16:13:01.481Z,51.23
2023-02-09T16:15:30.681Z,52.75
2023-02-09T16:17:59.467Z,51.70
2023-02-09T16:20:30.943Z,51.54
2023-02-09T16:23:11.840Z,51.58
2023-02-09T16:25:49.779Z,51.67
2023-02-09T16:28:21.465Z,51.77
2023-02-09T16:30:54.111Z,51.70
2023-02-09T16:33:26.058Z,51.88
2023-02-09T16:35:58.958Z,52.39
2023-02-09T16:38:29.675Z,52.22
2023-02-09T16:40:58.949Z,52.31
2023-02-09T16:43:29.146Z,52.19
2023-02-09T16:46:03.570Z,52.60
2023-02-09T16:48:35.554Z,52.87
2023-02-09T16:51:05.753Z,52.39
2023-02-09T16:53:40.738Z,52.63
2023-02-09T16:56:15.624Z,53.13
2023-02-09T16:58:47.221Z,52.60
2023-02-09T17:01:20.387Z,52.54
2023-02-09T17:03:52.925Z,52.64
2023-02-09T17:06:25.453Z,52.80
2023-02-09T17:08:56.670Z,53.27
2023-02-09T17:11:28.755Z,52.64
2023-02-09T17:13:58.964Z,53.51
2023-02-09T17:16:38.367Z,53.59
2023-02-09T17:19:18.121Z,53.34
2023-02-09T17:21:47.347Z,53.90
2023-02-09T17:24:18.783Z,53.28
2023-02-09T17:26:47.856Z,53.70
2023-02-09T17:29:21.320Z,52.70
2023-02-09T17:31:53.549Z,52.90
2023-02-09T17:34:27.196Z,53.53
2023-02-09T17:36:56.807Z,53.32
2023-02-09T17:39:25.902Z,53.03
2023-02-09T17:41:55.049Z,53.03
2023-02-09T17:44:45.155Z,53.06
2023-02-09T17:47:18.609Z,52.79
2023-02-09T17:49:47.636Z,53.22
2023-02-09T17:52:18.710Z,53.71
2023-02-09T17:54:49.514Z,53.47
2023-02-09T17:57:19.723Z,53.47
2023-02-09T17:59:49.924Z,53.47
2023-02-09T18:02:20.678Z,53.33
2023-02-09T18:04:49.568Z,53.61
2023-02-09T18:07:20.633Z,54.02
2023-02-09T18:09:49.847Z,53.88
2023-02-09T18:12:24.939Z,53.82
2023-02-09T18:14:55.137Z,53.62
2023-02-09T18:17:24.245Z,53.90
2023-02-09T18:19:53.065Z,54.26
2023-02-09T18:22:22.152Z,54.12
2023-02-09T18:24:51.270Z,54.11
2023-02-09T18:27:23.100Z,54.28
2023-02-09T18:29:51.971Z,54.71
2023-02-09T18:32:23.953Z,54.44
2023-02-09T18:34:52.952Z,54.47
2023-02-09T18:37:22.563Z,54.25
2023-02-09T18:39:51.387Z,54.24
2023-02-09T18:42:20.594Z,54.90
2023-02-09T18:44:49.398Z,54.91
2023-02-09T18:47:18.577Z,54.86
2023-02-09T18:49:48.739Z,55.33
2023-02-09T18:52:18.885Z,54.32
2023-02-09T18:54:47.693Z,54.49
2023-02-09T18:57:16.972Z,54.72
2023-02-09T18:59:47.862Z,55.02
2023-02-09T19:02:17.208Z,54.63
2023-02-09T19:04:46.356Z,54.38
2023-02-09T19:07:17.145Z,54.44
2023-02-09T19:09:46.947Z,54.68
2023-02-09T19:12:16.263Z,54.57
2023-02-09T19:14:47.908Z,55.02
2023-02-09T19:17:19.954Z,55.16
2023-02-09T19:19:49.884Z,54.65
2023-02-09T19:22:22.549Z,54.77
2023-02-09T19:24:53.319Z,54.92
2023-02-09T19:27:22.555Z,54.92
2023-02-09T19:29:55.746Z,54.73
2023-02-09T19:32:26.950Z,54.33
2023-02-09T19:34:55.906Z,54.49
2023-02-09T19:37:26.515Z,53.94
2023-02-09T19:40:04.203Z,54.40
2023-02-09T19:42:34.569Z,54.20
2023-02-09T19:45:03.536Z,54.75
2023-02-09T19:47:32.770Z,54.87
2023-02-09T19:50:01.899Z,55.06
2023-02-09T19:52:34.862Z,54.96
2023-02-09T19:55:04.672Z,55.77
2023-02-09T19:57:34.071Z,55.20
2023-02-09T20:00:05.727Z,55.19
2023-02-09T20:02:37.710Z,55.47
2023-02-09T20:05:07.620Z,55.51
2023-02-09T20:07:38.525Z,54.78
2023-02-09T20:10:08.799Z,54.65
2023-02-09T20:12:38.160Z,55.77
2023-02-09T20:15:07.459Z,56.29
2023-02-09T20:17:36.574Z,55.90
2023-02-09T20:20:06.623Z,57.08
2023-02-09T20:22:37.863Z,55.79
2023-02-09T20:25:08.107Z,56.49
2023-02-09T20:27:37.374Z,56.14
2023-02-09T20:30:07.880Z,55.99
2023-02-09T20:32:37.039Z,55.80
2023-02-09T20:35:07.038Z,56.94
2023-02-09T20:37:37.620Z,55.98
2023-02-09T20:40:11.150Z,56.78
2023-02-09T20:42:57.759Z,56.62
2023-02-09T20:45:44.289Z,56.37
2023-02-09T20:48:13.810Z,56.71
2023-02-09T20:50:42.661Z,56.76
2023-02-09T20:53:13.281Z,56.35
2023-02-09T20:55:42.919Z,55.79
2023-02-09T20:58:13.733Z,55.90
2023-02-09T21:00:43.472Z,56.26
2023-02-09T21:03:12.996Z,56.32
2023-02-09T21:05:41.858Z,55.91
2023-02-09T21:08:12.372Z,56.04
2023-02-09T21:10:41.471Z,56.01
2023-02-09T21:13:11.173Z,56.10
2023-02-09T21:15:43.449Z,55.68
2023-02-09T21:18:12.581Z,55.90
2023-02-09T21:20:41.437Z,55.99
2023-02-09T21:23:12.132Z,55.21
2023-02-09T21:25:40.931Z,56.46
2023-02-09T21:28:10.106Z,56.16
2023-02-09T21:30:43.207Z,55.58
2023-02-09T21:33:12.336Z,56.01
2023-02-09T21:35:41.836Z,55.29
2023-02-09T21:38:12.172Z,54.93
2023-02-09T21:40:41.307Z,55.17
2023-02-09T21:43:10.219Z,54.98
2023-02-09T21:45:40.250Z,55.19
2023-02-09T21:48:09.626Z,55.08
2023-02-09T21:50:39.820Z,55.25
2023-02-09T21:53:08.899Z,54.77
2023-02-09T21:55:39.533Z,55.76
2023-02-09T21:58:08.381Z,54.85
2023-02-09T22:00:37.578Z,55.24
2023-02-09T22:03:06.387Z,54.84
2023-02-09T22:05:35.482Z,54.90
2023-02-09T22:08:04.265Z,54.89
2023-02-09T22:10:33.363Z,55.10
2023-02-09T22:13:08.562Z,55.22
2023-02-09T22:15:41.650Z,55.18
2023-02-09T22:18:11.404Z,55.25
2023-02-09T22:20:42.172Z,55.46
2023-02-09T22:23:11.764Z,55.29
2023-02-09T22:25:41.026Z,55.51
2023-02-09T22:28:11.844Z,55.51
2023-02-09T22:30:41.133Z,55.53
2023-02-09T22:33:10.059Z,55.18
2023-02-09T22:35:42.451Z,55.12
2023-02-09T22:38:11.251Z,55.46
2023-02-09T22:40:40.559Z,55.32
2023-02-09T22:43:10.834Z,55.32
2023-02-09T22:45:39.977Z,55.77
2023-02-09T22:48:11.852Z,55.85
2023-02-09T22:50:40.915Z,55.64
2023-02-09T22:53:09.714Z,55.89
2023-02-09T22:55:38.767Z,56.12
2023-02-09T22:58:07.664Z,55.79
2023-02-09T23:00:38.096Z,56.10
2023-02-09T23:03:06.854Z,56.31
2023-02-09T23:05:36.626Z,55.58
2023-02-09T23:08:05.908Z,55.41
2023-02-09T23:10:35.027Z,55.53
2023-02-09T23:13:03.790Z,55.19
2023-02-09T23:15:32.908Z,55.26
2023-02-09T23:18:03.144Z,55.92
2023-02-09T23:20:32.520Z,55.84
2023-02-09T23:23:06.579Z,56.21
2023-02-09T23:25:35.734Z,56.45
2023-02-09T23:28:05.014Z,56.69
2023-02-09T23:30:35.353Z,55.76
2023-02-09T23:33:05.621Z,56.20
2023-02-09T23:35:34.712Z,56.83
2023-02-09T23:38:03.468Z,56.47
2023-02-09T23:40:33.016Z,56.19
2023-02-09T23:43:01.806Z,56.78
2023-02-09T23:45:30.958Z,57.28
2023-02-09T23:47:59.815Z,57.27
2023-02-09T23:50:30.332Z,57.35
2023-02-09T23:52:59.156Z,57.13
2023-02-09T23:55:28.333Z,56.53
2023-02-09T23:57:57.194Z,57.01
